Terminal Aerodrome Forecast
Issued by NWS Cleveland, OH

Home | Current Version | Previous Version | Graphics & Text | Print | Product List | Glossary On
Versions: 1 2 3 4 5 6 7 8 9 10 11 12 13 14 15 16
000
FTUS41 KCLE 071724
TAFMFD
TAF
KMFD 071724Z 0718/0818 21012G18KT P6SM VCSH BKN035 OVC060
     FM071900 22012KT P6SM -SHRA VCTS OVC035CB
      TEMPO 0720/0724 3SM -TSRA BR BKN015 OVC040CB
     FM080000 25006KT 3SM -SHRA BR BKN007 OVC015
     FM080500 34006KT 5SM -SHRA BR OVC007
     FM081600 02008KT 6SM -SHRA OVC012=

USA.gov is the U.S. government's official web portal to all federal, state and local government web resources and services.